createdAt,value
2022-10-19T04:45:14.584Z,7.98
2022-10-19T04:46:14.524Z,7.97
2022-10-19T04:47:14.504Z,7.97
2022-10-19T04:48:15.217Z,7.97
2022-10-19T04:49:17.848Z,7.97
2022-10-19T04:50:15.478Z,7.95
2022-10-19T04:51:14.451Z,7.97
2022-10-19T04:52:14.452Z,7.98
2022-10-19T04:53:14.457Z,7.98
2022-10-19T04:54:14.413Z,8.02
2022-10-19T04:55:14.404Z,8.02
2022-10-19T04:56:14.410Z,8.04
2022-10-19T04:57:14.376Z,8.07
2022-10-19T04:58:14.377Z,8.07
2022-10-19T04:59:14.360Z,8.07
2022-10-19T05:00:14.365Z,8.05
2022-10-19T05:01:15.025Z,8.05
2022-10-19T05:02:14.338Z,8.02
2022-10-19T05:03:14.308Z,8.05
2022-10-19T05:04:14.310Z,8.05
2022-10-19T05:05:14.295Z,8.07
2022-10-19T05:06:14.287Z,8.08
2022-10-19T05:07:14.289Z,8.10
2022-10-19T05:08:14.288Z,8.11
2022-10-19T05:09:14.261Z,8.12
2022-10-19T05:10:14.247Z,8.12
2022-10-19T05:11:14.243Z,8.11
2022-10-19T05:12:14.229Z,8.15
2022-10-19T05:13:14.210Z,8.12
2022-10-19T05:14:14.267Z,8.12
2022-10-19T05:15:14.206Z,8.12
2022-10-19T05:16:14.281Z,8.15
2022-10-19T05:17:14.173Z,8.15
2022-10-19T05:18:14.154Z,8.15
2022-10-19T05:19:14.145Z,8.12
2022-10-19T05:20:14.157Z,8.11
2022-10-19T05:21:14.113Z,8.15
2022-10-19T05:22:14.109Z,8.11
2022-10-19T05:23:14.106Z,8.11
2022-10-19T05:24:14.112Z,8.15
2022-10-19T05:25:14.072Z,8.10
2022-10-19T05:26:14.067Z,8.11
2022-10-19T05:27:14.059Z,8.08
2022-10-19T05:28:14.057Z,8.07
2022-10-19T05:29:14.047Z,8.10
2022-10-19T05:30:14.054Z,8.11
2022-10-19T05:31:14.015Z,8.12
2022-10-19T05:32:14.031Z,8.15
2022-10-19T05:33:13.991Z,8.12
2022-10-19T05:34:13.988Z,8.12
2022-10-19T05:35:16.376Z,8.12
2022-10-19T05:36:13.966Z,8.12
2022-10-19T05:37:13.936Z,8.12
2022-10-19T05:38:13.957Z,8.12
2022-10-19T05:39:14.068Z,8.12
2022-10-19T05:40:13.913Z,8.11
2022-10-19T05:41:13.895Z,8.10
2022-10-19T05:42:13.895Z,8.10
2022-10-19T05:43:13.888Z,8.12
2022-10-19T05:44:13.893Z,8.15
2022-10-19T05:45:13.854Z,8.11
2022-10-19T05:46:13.876Z,8.12
2022-10-19T05:47:13.998Z,8.15
2022-10-19T05:48:13.823Z,8.15
2022-10-19T05:49:13.808Z,8.16
2022-10-19T05:50:13.900Z,8.16
2022-10-19T05:51:13.785Z,8.18
2022-10-19T05:52:13.797Z,8.19
2022-10-19T05:53:13.778Z,8.20
2022-10-19T05:54:13.775Z,8.23
2022-10-19T05:55:13.759Z,8.23
2022-10-19T05:56:13.773Z,8.23
2022-10-19T05:57:13.804Z,8.25
2022-10-19T05:58:13.723Z,8.26
2022-10-19T05:59:13.707Z,8.25
2022-10-19T06:00:13.715Z,8.23
2022-10-19T06:01:13.687Z,8.26
2022-10-19T06:02:13.728Z,8.25
2022-10-19T06:03:13.664Z,8.28
2022-10-19T06:04:13.703Z,8.29
2022-10-19T06:05:13.649Z,8.26
2022-10-19T06:06:14.590Z,8.26
2022-10-19T06:07:13.714Z,8.29
2022-10-19T06:08:13.605Z,8.29
2022-10-19T06:09:13.661Z,8.29
2022-10-19T06:10:13.593Z,8.30
2022-10-19T06:11:13.577Z,8.30
2022-10-19T06:12:15.792Z,8.30
2022-10-19T06:13:13.555Z,8.33
2022-10-19T06:14:13.551Z,8.30
2022-10-19T06:15:13.539Z,8.34
2022-10-19T06:16:13.569Z,8.33
2022-10-19T06:17:13.585Z,8.36
2022-10-19T06:18:13.708Z,8.36
2022-10-19T06:19:13.481Z,8.36
2022-10-19T06:20:13.480Z,8.36
2022-10-19T06:21:13.489Z,8.34
2022-10-19T06:22:13.478Z,8.33
2022-10-19T06:23:13.446Z,8.33
2022-10-19T06:24:13.438Z,8.34
2022-10-19T06:25:16.633Z,8.36
2022-10-19T06:26:14.432Z,8.34
2022-10-19T06:27:13.510Z,8.37
2022-10-19T06:28:13.412Z,8.38
2022-10-19T06:29:13.389Z,8.40
2022-10-19T06:30:13.447Z,8.41
2022-10-19T06:31:13.358Z,8.43
2022-10-19T06:32:13.379Z,8.44
2022-10-19T06:33:13.385Z,8.44
2022-10-19T06:34:13.404Z,8.47
2022-10-19T06:35:13.315Z,8.48
2022-10-19T06:36:13.311Z,8.52
2022-10-19T06:37:13.312Z,8.55
2022-10-19T06:38:13.293Z,8.55
2022-10-19T06:39:13.283Z,8.56
2022-10-19T06:40:13.319Z,8.59
2022-10-19T06:41:13.328Z,8.62
2022-10-19T06:42:13.253Z,8.66
2022-10-19T06:43:13.225Z,8.70
2022-10-19T06:44:13.219Z,8.71
2022-10-19T06:45:13.207Z,8.73
2022-10-19T06:46:13.228Z,8.74
2022-10-19T06:47:13.193Z,8.74
2022-10-19T06:48:13.194Z,8.74
2022-10-19T06:49:13.265Z,8.77
2022-10-19T06:50:13.166Z,8.76
2022-10-19T06:51:13.232Z,8.79
2022-10-19T06:52:13.228Z,8.79
2022-10-19T06:53:13.235Z,8.81
2022-10-19T06:54:13.166Z,8.81
2022-10-19T06:55:13.096Z,8.83
2022-10-19T06:56:13.304Z,8.84
2022-10-19T06:57:13.116Z,8.86
2022-10-19T06:58:13.302Z,8.84
2022-10-19T06:59:14.090Z,8.87
2022-10-19T07:00:13.072Z,8.91
2022-10-19T07:01:13.351Z,8.92
2022-10-19T07:02:13.024Z,8.96
2022-10-19T07:03:13.010Z,8.99
2022-10-19T07:04:13.016Z,9.01
2022-10-19T07:05:12.992Z,9.05
2022-10-19T07:06:12.995Z,9.05
2022-10-19T07:07:12.966Z,9.08
2022-10-19T07:08:13.019Z,9.10
2022-10-19T07:09:13.097Z,9.11
2022-10-19T07:10:12.950Z,9.13
2022-10-19T07:11:13.044Z,9.15
2022-10-19T07:12:12.923Z,9.20
2022-10-19T07:13:12.930Z,9.21
2022-10-19T07:14:12.897Z,9.28
2022-10-19T07:15:12.879Z,9.31
2022-10-19T07:16:16.091Z,9.32
2022-10-19T07:17:13.864Z,9.33
2022-10-19T07:18:12.859Z,9.35
2022-10-19T07:19:12.828Z,9.39
2022-10-19T07:20:12.969Z,9.46
2022-10-19T07:21:12.823Z,9.48
2022-10-19T07:22:18.597Z,9.53
2022-10-19T07:23:14.118Z,9.56
2022-10-19T07:24:12.873Z,9.57
2022-10-19T07:25:13.248Z,9.54
2022-10-19T07:26:12.788Z,9.53
2022-10-19T07:27:12.751Z,9.57
2022-10-19T07:28:12.780Z,9.64
2022-10-19T07:29:12.734Z,9.69
2022-10-19T07:30:12.716Z,9.71
2022-10-19T07:31:12.712Z,9.75
2022-10-19T07:32:12.711Z,9.79
2022-10-19T07:33:12.775Z,9.81
2022-10-19T07:34:12.693Z,9.79
2022-10-19T07:35:12.673Z,9.84
2022-10-19T07:36:12.669Z,9.91
2022-10-19T07:37:12.649Z,9.94
2022-10-19T07:38:12.634Z,9.96
2022-10-19T07:39:12.638Z,9.93
2022-10-19T07:40:12.619Z,9.99
2022-10-19T07:41:12.610Z,10.05
2022-10-19T07:42:12.707Z,10.07
2022-10-19T07:43:12.832Z,10.09
2022-10-19T07:44:15.534Z,10.18
2022-10-19T07:45:12.557Z,10.23
2022-10-19T07:46:12.549Z,10.30
2022-10-19T07:47:12.537Z,10.34
2022-10-19T07:48:12.524Z,10.41
2022-10-19T07:49:12.516Z,10.40
2022-10-19T07:50:12.504Z,10.41
2022-10-19T07:51:13.209Z,10.40
2022-10-19T07:52:12.504Z,10.47
2022-10-19T07:53:12.465Z,10.48
2022-10-19T07:54:12.667Z,10.55
2022-10-19T07:55:12.448Z,10.56
2022-10-19T07:56:12.452Z,10.61
2022-10-19T07:57:12.524Z,10.66
2022-10-19T07:58:12.420Z,10.68
2022-10-19T07:59:12.411Z,10.74
2022-10-19T08:00:12.395Z,10.79
2022-10-19T08:01:12.381Z,10.82
2022-10-19T08:02:12.591Z,10.85
2022-10-19T08:03:57.145Z,10.89
2022-10-19T08:04:49.079Z,10.91
2022-10-19T08:05:13.691Z,10.96
2022-10-19T08:06:12.402Z,11.02
2022-10-19T08:07:12.331Z,11.04
2022-10-19T08:08:12.297Z,11.04
2022-10-19T08:09:27.734Z,11.07
2022-10-19T08:10:13.293Z,11.11
2022-10-19T08:11:12.265Z,11.15
2022-10-19T08:12:15.206Z,11.21
2022-10-19T08:13:12.248Z,11.27
2022-10-19T08:14:12.283Z,11.33
2022-10-19T08:15:12.235Z,11.37
2022-10-19T08:16:12.394Z,11.39
2022-10-19T08:17:12.214Z,11.40
2022-10-19T08:18:12.198Z,11.49
2022-10-19T08:19:12.252Z,11.51
2022-10-19T08:20:12.227Z,11.57
2022-10-19T08:21:12.176Z,11.60
2022-10-19T08:22:12.313Z,11.64
2022-10-19T08:23:12.239Z,11.67
2022-10-19T08:24:12.257Z,11.73
2022-10-19T08:25:12.106Z,11.78
2022-10-19T08:26:12.121Z,11.80
2022-10-19T08:27:12.134Z,11.85
2022-10-19T08:28:12.119Z,11.95
2022-10-19T08:29:12.133Z,12.01
2022-10-19T08:30:12.076Z,12.07
2022-10-19T08:31:12.071Z,12.14
2022-10-19T08:32:12.048Z,12.16
2022-10-19T08:33:12.051Z,12.24
2022-10-19T08:34:12.040Z,12.24
2022-10-19T08:35:12.068Z,12.27
2022-10-19T08:36:12.012Z,12.19
2022-10-19T08:37:25.729Z,12.21
2022-10-19T08:38:12.988Z,12.21
2022-10-19T08:39:12.134Z,12.24
2022-10-19T08:40:11.992Z,12.28
2022-10-19T08:41:12.156Z,12.27
2022-10-19T08:42:12.001Z,12.35
2022-10-19T08:43:12.178Z,12.41
2022-10-19T08:44:11.911Z,12.45
2022-10-19T08:45:11.897Z,12.49
2022-10-19T08:46:11.950Z,12.54
2022-10-19T08:47:12.542Z,12.59
2022-10-19T08:48:11.886Z,12.65
2022-10-19T08:49:11.872Z,12.70
2022-10-19T08:50:12.027Z,12.75
2022-10-19T08:51:12.257Z,12.79
2022-10-19T08:52:12.289Z,12.86
2022-10-19T08:53:12.298Z,12.92
2022-10-19T08:54:11.893Z,12.93
2022-10-19T08:55:15.114Z,13.00
2022-10-19T08:56:22.133Z,13.04
2022-10-19T08:57:13.147Z,13.11
2022-10-19T08:58:11.812Z,13.17
2022-10-19T08:59:11.767Z,13.23
2022-10-19T09:00:11.899Z,13.30
2022-10-19T09:01:11.947Z,13.39
2022-10-19T09:02:11.721Z,13.42
2022-10-19T09:03:11.692Z,13.41
2022-10-19T09:04:11.678Z,13.45
2022-10-19T09:05:11.696Z,13.51
2022-10-19T09:06:11.691Z,13.54
2022-10-19T09:07:11.682Z,13.71
2022-10-19T09:08:16.710Z,13.69
2022-10-19T09:09:12.642Z,13.66
2022-10-19T09:10:11.665Z,13.66
2022-10-19T09:11:11.624Z,13.64
2022-10-19T09:12:11.619Z,13.60
2022-10-19T09:13:11.679Z,13.66
2022-10-19T09:14:11.629Z,13.78
2022-10-19T09:15:11.783Z,13.89
2022-10-19T09:16:11.558Z,13.85
2022-10-19T09:17:11.589Z,13.77
2022-10-19T09:18:11.656Z,13.63
2022-10-19T09:19:11.569Z,13.59
2022-10-19T09:20:11.537Z,13.66
2022-10-19T09:21:11.791Z,13.69
2022-10-19T09:22:11.533Z,13.69
2022-10-19T09:23:13.413Z,13.75
2022-10-19T09:24:11.495Z,13.77
2022-10-19T09:25:11.496Z,13.81
2022-10-19T09:26:11.624Z,13.84
2022-10-19T09:27:11.451Z,13.92
2022-10-19T09:28:11.434Z,14.00
2022-10-19T09:29:11.505Z,14.12
2022-10-19T09:30:11.644Z,14.22
2022-10-19T09:31:11.807Z,14.25
2022-10-19T09:32:11.391Z,14.24
2022-10-19T09:33:15.258Z,14.22
2022-10-19T09:34:11.375Z,14.27
2022-10-19T09:35:11.433Z,14.36
2022-10-19T09:36:22.284Z,14.29
2022-10-19T09:37:18.792Z,14.37
2022-10-19T09:38:12.713Z,14.43
2022-10-19T09:39:11.317Z,14.43
2022-10-19T09:40:11.294Z,14.47
2022-10-19T09:41:11.285Z,14.54
2022-10-19T09:42:11.294Z,14.55
2022-10-19T09:43:11.286Z,14.55
2022-10-19T09:44:11.253Z,14.61
2022-10-19T09:45:11.282Z,14.62
2022-10-19T09:46:19.403Z,14.68
2022-10-19T09:47:13.815Z,14.65
2022-10-19T09:48:13.170Z,14.73
2022-10-19T09:49:11.273Z,14.73
2022-10-19T09:50:11.245Z,14.72
2022-10-19T09:51:11.275Z,14.65
2022-10-19T09:52:11.172Z,14.64
2022-10-19T09:53:11.185Z,14.62
2022-10-19T09:54:11.146Z,14.52
2022-10-19T09:55:11.523Z,14.43
2022-10-19T09:56:11.296Z,14.33
2022-10-19T09:57:11.274Z,14.32
2022-10-19T09:58:11.280Z,14.29
2022-10-19T09:59:11.287Z,14.29
2022-10-19T10:00:11.070Z,14.33
2022-10-19T10:01:11.082Z,14.37
2022-10-19T10:02:11.057Z,14.43
2022-10-19T10:03:11.280Z,14.42
2022-10-19T10:04:11.070Z,14.46
2022-10-19T10:05:11.050Z,14.52
2022-10-19T10:06:11.012Z,14.60
2022-10-19T10:07:11.144Z,14.64
2022-10-19T10:08:11.001Z,14.57
2022-10-19T10:09:11.292Z,14.45
2022-10-19T10:10:10.964Z,14.42
2022-10-19T10:11:10.999Z,14.42
2022-10-19T10:12:10.965Z,14.42
2022-10-19T10:13:10.934Z,14.45
2022-10-19T10:14:10.965Z,14.42
2022-10-19T10:15:10.949Z,14.46
2022-10-19T10:16:10.897Z,14.54
2022-10-19T10:17:10.895Z,14.55
2022-10-19T10:18:10.876Z,14.54
2022-10-19T10:19:10.881Z,14.47
2022-10-19T10:20:10.862Z,14.50
2022-10-19T10:21:10.848Z,14.52
2022-10-19T10:22:10.855Z,14.52
2022-10-19T10:23:10.810Z,14.51
2022-10-19T10:24:10.806Z,14.47
2022-10-19T10:25:10.799Z,14.47
2022-10-19T10:26:10.900Z,14.47
2022-10-19T10:27:10.789Z,14.45
2022-10-19T10:28:10.766Z,14.40
2022-10-19T10:29:10.776Z,14.37
2022-10-19T10:30:11.066Z,14.37
2022-10-19T10:31:10.729Z,14.35
2022-10-19T10:32:10.721Z,14.32
2022-10-19T10:33:15.925Z,14.32
2022-10-19T10:34:23.044Z,14.35
2022-10-19T10:35:11.695Z,14.39
2022-10-19T10:36:10.749Z,14.47
2022-10-19T10:37:10.677Z,14.43
2022-10-19T10:38:10.812Z,14.46
2022-10-19T10:39:11.112Z,14.50
2022-10-19T10:40:10.987Z,14.54
2022-10-19T10:41:11.121Z,14.57
2022-10-19T10:42:10.732Z,14.57
2022-10-19T10:43:10.948Z,14.54
2022-10-19T10:44:10.797Z,14.57
2022-10-19T10:45:11.249Z,14.57
2022-10-19T10:46:10.637Z,14.46
2022-10-19T10:47:10.682Z,14.40
2022-10-19T10:48:10.545Z,14.39
2022-10-19T10:49:10.685Z,14.39
2022-10-19T10:50:10.691Z,14.43
2022-10-19T10:51:10.512Z,14.43
2022-10-19T10:52:10.504Z,14.43
2022-10-19T10:53:10.555Z,14.43
2022-10-19T10:54:10.489Z,14.42
2022-10-19T10:55:10.475Z,14.43
2022-10-19T10:56:10.459Z,14.46
2022-10-19T10:57:10.555Z,14.43
2022-10-19T10:58:10.431Z,14.45
2022-10-19T10:59:10.455Z,14.51
2022-10-19T11:00:10.412Z,14.55
2022-10-19T11:01:10.428Z,14.61
2022-10-19T11:02:10.824Z,14.69
2022-10-19T11:03:10.521Z,14.73
2022-10-19T11:04:10.395Z,14.84
2022-10-19T11:05:10.679Z,14.89
2022-10-19T11:06:10.434Z,14.92
2022-10-19T11:07:10.480Z,14.84
2022-10-19T11:08:10.451Z,14.77
2022-10-19T11:09:10.372Z,14.60
2022-10-19T11:10:10.298Z,14.54
2022-10-19T11:11:10.298Z,14.39
2022-10-19T11:12:10.287Z,14.51
2022-10-19T11:13:10.277Z,14.51
2022-10-19T11:14:10.373Z,14.61
2022-10-19T11:15:10.283Z,14.80
2022-10-19T11:16:10.241Z,14.98
2022-10-19T11:17:10.718Z,15.11
2022-10-19T11:18:10.206Z,15.34
2022-10-19T11:19:10.235Z,15.50
2022-10-19T11:20:10.264Z,15.64
2022-10-19T11:21:10.209Z,15.71
2022-10-19T11:22:10.477Z,15.71
2022-10-19T11:23:10.238Z,15.64
2022-10-19T11:24:10.145Z,15.62
2022-10-19T11:25:10.163Z,15.64
2022-10-19T11:26:10.136Z,15.60
2022-10-19T11:27:10.110Z,15.59
2022-10-19T11:28:10.169Z,15.54
2022-10-19T11:29:10.295Z,15.53
2022-10-19T11:30:10.077Z,15.53
2022-10-19T11:31:10.059Z,15.50
2022-10-19T11:32:10.193Z,15.41
2022-10-19T11:33:10.053Z,15.31
2022-10-19T11:34:10.047Z,15.28
2022-10-19T11:35:10.055Z,15.23
2022-10-19T11:36:10.096Z,15.21
2022-10-19T11:37:10.316Z,15.16
2022-10-19T11:38:29.813Z,15.23
2022-10-19T11:39:11.043Z,15.36
2022-10-19T11:40:10.207Z,15.43
2022-10-19T11:41:17.814Z,15.50
2022-10-19T11:42:10.937Z,15.65
2022-10-19T11:43:09.939Z,15.84
2022-10-19T11:44:09.925Z,16.20
2022-10-19T11:45:09.921Z,16.58
2022-10-19T11:46:09.900Z,16.86
2022-10-19T11:47:09.910Z,17.06
2022-10-19T11:48:09.890Z,17.12
2022-10-19T11:49:09.885Z,17.16
2022-10-19T11:51:21.109Z,17.00
2022-10-19T11:52:11.214Z,16.86
2022-10-19T11:53:09.859Z,16.78
2022-10-19T11:54:14.583Z,16.73
2022-10-19T11:55:09.823Z,16.79
2022-10-19T11:56:09.848Z,16.73
2022-10-19T11:57:11.635Z,16.75
2022-10-19T11:58:09.780Z,16.70
2022-10-19T11:59:09.865Z,16.71
2022-10-19T12:00:15.323Z,16.50
2022-10-19T12:01:10.828Z,16.30
2022-10-19T12:02:09.873Z,16.14
2022-10-19T12:03:09.731Z,16.07
2022-10-19T12:04:09.736Z,15.86
2022-10-19T12:05:09.960Z,15.65
2022-10-19T12:06:09.810Z,15.62
2022-10-19T12:07:09.681Z,15.53
2022-10-19T12:08:09.742Z,15.36
2022-10-19T12:09:09.719Z,15.32
2022-10-19T12:10:09.649Z,15.32
2022-10-19T12:11:09.644Z,15.29
2022-10-19T12:12:09.659Z,15.29
2022-10-19T12:13:09.641Z,15.32
2022-10-19T12:14:09.598Z,15.35
2022-10-19T12:15:09.594Z,15.36
2022-10-19T12:16:09.569Z,15.31
2022-10-19T12:17:09.626Z,15.27
2022-10-19T12:18:09.559Z,15.17
2022-10-19T12:19:09.553Z,15.13
2022-10-19T12:20:09.911Z,15.14
2022-10-19T12:21:09.526Z,15.14
2022-10-19T12:22:10.166Z,15.19
2022-10-19T12:23:09.512Z,15.23
2022-10-19T12:24:09.489Z,15.29
2022-10-19T12:25:09.571Z,15.20
2022-10-19T12:26:09.766Z,15.19
2022-10-19T12:27:09.483Z,15.27
2022-10-19T12:28:09.961Z,15.34
2022-10-19T12:29:09.466Z,15.41
2022-10-19T12:30:09.511Z,15.51
2022-10-19T12:31:09.498Z,15.54
2022-10-19T12:32:09.538Z,15.50
2022-10-19T12:33:09.389Z,15.47
2022-10-19T12:34:09.411Z,15.49
2022-10-19T12:35:09.521Z,15.47
2022-10-19T12:36:09.666Z,15.38
2022-10-19T12:37:09.359Z,15.38
2022-10-19T12:38:09.365Z,15.39
2022-10-19T12:39:09.433Z,15.23
2022-10-19T12:40:09.477Z,15.13
2022-10-19T12:41:09.388Z,14.99
2022-10-19T12:42:09.552Z,14.94
2022-10-19T12:43:09.285Z,14.91
2022-10-19T12:44:09.276Z,14.94
2022-10-19T12:45:09.265Z,15.02
2022-10-19T12:46:09.268Z,15.36
2022-10-19T12:47:09.267Z,15.36
2022-10-19T12:48:09.243Z,15.46
2022-10-19T12:49:09.242Z,15.60
2022-10-19T12:50:09.382Z,15.75
2022-10-19T12:51:09.249Z,15.94
2022-10-19T12:52:09.241Z,16.00
2022-10-19T12:53:09.186Z,16.01
2022-10-19T12:54:09.247Z,16.30
2022-10-19T12:55:09.213Z,16.67
2022-10-19T12:56:09.144Z,17.16
2022-10-19T12:57:09.126Z,17.54
2022-10-19T12:58:09.156Z,17.93
2022-10-19T12:59:09.214Z,18.18
2022-10-19T13:00:09.267Z,18.25
2022-10-19T13:01:09.293Z,18.23
2022-10-19T13:02:09.091Z,18.00
2022-10-19T13:03:09.138Z,17.97
2022-10-19T13:04:09.086Z,18.00
2022-10-19T13:05:09.055Z,17.74
2022-10-19T13:06:09.031Z,17.72
2022-10-19T13:07:09.032Z,17.68
2022-10-19T13:08:12.104Z,17.49
2022-10-19T13:09:10.220Z,17.40
2022-10-19T13:10:09.148Z,17.18
2022-10-19T13:11:08.965Z,17.01
2022-10-19T13:12:08.981Z,16.82
2022-10-19T13:13:09.014Z,16.60
2022-10-19T13:14:08.987Z,16.52
2022-10-19T13:15:08.941Z,16.38
2022-10-19T13:16:08.941Z,16.24
2022-10-19T13:17:09.028Z,16.15
2022-10-19T13:18:09.063Z,16.07
2022-10-19T13:19:08.905Z,16.05
2022-10-19T13:20:08.924Z,16.04
2022-10-19T13:21:08.873Z,15.92
2022-10-19T13:22:08.877Z,15.84
2022-10-19T13:23:09.101Z,15.82
2022-10-19T13:24:09.214Z,15.83
2022-10-19T13:25:09.001Z,15.80
2022-10-19T13:26:08.827Z,15.74
2022-10-19T13:27:08.809Z,15.75
2022-10-19T13:28:08.805Z,15.75
2022-10-19T13:29:08.930Z,15.72
2022-10-19T13:30:09.319Z,15.82
2022-10-19T13:31:12.904Z,15.82
2022-10-19T13:32:09.853Z,15.89
2022-10-19T13:33:09.231Z,15.96
2022-10-19T13:34:08.748Z,16.07
2022-10-19T13:35:08.784Z,16.09
2022-10-19T13:36:08.834Z,16.27
2022-10-19T13:37:08.877Z,16.60
2022-10-19T13:38:08.963Z,16.66
2022-10-19T13:39:08.679Z,16.66
2022-10-19T13:40:08.689Z,16.68
2022-10-19T13:41:08.821Z,16.56
2022-10-19T13:42:08.646Z,16.50
2022-10-19T13:43:08.647Z,16.61
2022-10-19T13:44:09.203Z,16.57
2022-10-19T13:45:08.634Z,16.66
2022-10-19T13:46:08.599Z,16.70
2022-10-19T13:47:08.814Z,17.06
2022-10-19T13:48:08.960Z,17.04
2022-10-19T13:49:08.950Z,17.16
2022-10-19T13:50:08.544Z,17.23
2022-10-19T13:51:08.595Z,17.18
2022-10-19T13:52:08.606Z,17.11
2022-10-19T13:53:08.675Z,16.97
2022-10-19T13:54:08.710Z,16.76
2022-10-19T13:55:08.530Z,16.78
2022-10-19T13:56:08.487Z,16.61
2022-10-19T13:57:08.492Z,16.42
2022-10-19T13:58:08.473Z,16.39
2022-10-19T13:59:08.645Z,16.57
2022-10-19T14:00:08.662Z,16.75
2022-10-19T14:01:08.503Z,17.04
2022-10-19T14:02:08.719Z,17.51
2022-10-19T14:03:11.584Z,17.90
2022-10-19T14:04:09.761Z,18.07
2022-10-19T14:05:08.406Z,17.95
2022-10-19T14:06:08.381Z,18.10
2022-10-19T14:07:08.405Z,18.12
2022-10-19T14:08:08.361Z,18.26
2022-10-19T14:09:08.436Z,18.60
2022-10-19T14:10:08.353Z,18.80
2022-10-19T14:11:08.357Z,18.98
2022-10-19T14:12:08.312Z,18.99
2022-10-19T14:13:08.598Z,18.78
2022-10-19T14:14:08.312Z,18.44
2022-10-19T14:15:08.296Z,18.12
2022-10-19T14:16:08.489Z,18.17
2022-10-19T14:17:08.477Z,18.14
2022-10-19T14:18:12.012Z,17.93
2022-10-19T14:19:09.239Z,17.71
2022-10-19T14:20:08.232Z,17.77
2022-10-19T14:21:08.328Z,18.00
2022-10-19T14:22:08.350Z,18.11
2022-10-19T14:23:08.234Z,18.11
2022-10-19T14:24:08.191Z,18.21
2022-10-19T14:25:08.208Z,18.45
2022-10-19T14:26:08.301Z,18.67
2022-10-19T14:27:08.169Z,18.72
2022-10-19T14:28:08.196Z,18.75
2022-10-19T14:29:08.198Z,18.66
2022-10-19T14:30:08.339Z,18.57
2022-10-19T14:31:08.105Z,18.57
2022-10-19T14:32:08.095Z,18.73
2022-10-19T14:33:08.090Z,19.22
2022-10-19T14:34:08.279Z,19.73
2022-10-19T14:35:08.081Z,20.02
2022-10-19T14:36:08.144Z,20.10
2022-10-19T14:37:08.115Z,20.17
2022-10-19T14:38:08.042Z,20.42
2022-10-19T14:39:08.308Z,20.54
2022-10-19T14:40:08.060Z,20.72
2022-10-19T14:41:08.106Z,20.59
2022-10-19T14:42:08.158Z,20.35
2022-10-19T14:43:08.224Z,20.38
2022-10-19T14:44:08.272Z,20.51
2022-10-19T14:45:08.302Z,20.55
2022-10-19T14:46:07.967Z,20.52
2022-10-19T14:47:07.978Z,20.58
2022-10-19T14:48:07.978Z,20.58
2022-10-19T14:49:08.016Z,20.64
2022-10-19T14:50:08.056Z,20.29
2022-10-19T14:51:07.917Z,20.10
2022-10-19T14:52:08.016Z,20.01
2022-10-19T14:53:07.873Z,20.06
2022-10-19T14:54:07.860Z,20.18
2022-10-19T14:55:07.913Z,20.41
2022-10-19T14:56:07.837Z,20.41
2022-10-19T14:57:07.818Z,20.20
2022-10-19T14:58:08.090Z,20.10
2022-10-19T14:59:07.851Z,19.78
2022-10-19T15:00:07.972Z,19.41
2022-10-19T15:01:08.084Z,19.04
2022-10-19T15:02:07.997Z,18.57
2022-10-19T15:03:07.768Z,18.21
2022-10-19T15:04:07.761Z,18.27
2022-10-19T15:05:09.401Z,18.48
2022-10-19T15:06:07.747Z,18.60
2022-10-19T15:07:07.854Z,18.55
2022-10-19T15:08:07.704Z,18.58
2022-10-19T15:09:15.416Z,18.78
2022-10-19T15:10:08.749Z,19.06
2022-10-19T15:11:07.991Z,19.19
2022-10-19T15:12:07.700Z,19.26
2022-10-19T15:13:07.709Z,19.50
2022-10-19T15:14:07.798Z,19.69
2022-10-19T15:15:07.814Z,19.78
2022-10-19T15:16:07.619Z,19.77
2022-10-19T15:17:07.621Z,19.69
2022-10-19T15:18:13.213Z,19.74
2022-10-19T15:19:08.651Z,19.58
2022-10-19T15:20:07.706Z,19.40
2022-10-19T15:21:12.583Z,19.40
2022-10-19T15:22:08.946Z,19.50
2022-10-19T15:23:07.538Z,19.58
2022-10-19T15:24:07.885Z,19.62
2022-10-19T15:25:07.519Z,19.62
2022-10-19T15:26:16.434Z,19.61
2022-10-19T15:27:09.543Z,19.43
2022-10-19T15:28:07.549Z,19.06
2022-10-19T15:29:07.604Z,18.55
2022-10-19T15:30:07.514Z,18.15
2022-10-19T15:31:07.573Z,18.08
2022-10-19T15:32:07.467Z,17.81
2022-10-19T15:33:07.479Z,17.71
2022-10-19T15:34:07.535Z,17.55
2022-10-19T15:35:11.136Z,17.22
2022-10-19T15:36:07.580Z,16.89
2022-10-19T15:37:09.527Z,16.53
2022-10-19T15:38:07.380Z,16.25
2022-10-19T15:39:18.249Z,15.94
2022-10-19T15:40:08.370Z,15.62
2022-10-19T15:41:07.347Z,15.35
2022-10-19T15:42:07.373Z,15.21
2022-10-19T15:43:07.370Z,15.11
2022-10-19T15:44:07.314Z,14.94
2022-10-19T15:45:07.398Z,14.81
2022-10-19T15:46:07.309Z,14.64
2022-10-19T15:47:07.494Z,14.52
2022-10-19T15:48:07.298Z,14.42
2022-10-19T15:49:07.260Z,14.32
2022-10-19T15:50:07.241Z,14.24
2022-10-19T15:51:07.249Z,14.12
2022-10-19T15:52:07.237Z,13.99
2022-10-19T15:53:07.224Z,13.84
2022-10-19T15:54:07.215Z,13.77
2022-10-19T15:55:07.211Z,13.66
2022-10-19T15:56:07.188Z,13.57
2022-10-19T15:57:07.219Z,13.42
2022-10-19T15:58:07.203Z,13.30
2022-10-19T15:59:07.146Z,13.23
2022-10-19T16:00:07.228Z,13.19
2022-10-19T16:01:07.133Z,13.11
2022-10-19T16:02:07.161Z,13.03
2022-10-19T16:03:07.125Z,13.00
2022-10-19T16:04:07.102Z,12.93
2022-10-19T16:06:07.136Z,12.86
2022-10-19T16:07:07.630Z,12.75
2022-10-19T16:08:10.126Z,12.64
2022-10-19T16:09:08.564Z,12.56
2022-10-19T16:10:07.033Z,12.50
2022-10-19T16:11:07.210Z,12.45
2022-10-19T16:12:07.015Z,12.37
2022-10-19T16:13:06.996Z,12.32
2022-10-19T16:14:07.070Z,12.23
2022-10-19T16:15:06.978Z,12.16
2022-10-19T16:16:11.330Z,12.13
2022-10-19T16:17:06.965Z,12.07
2022-10-19T16:18:06.938Z,12.02
2022-10-19T16:19:06.930Z,11.99
2022-10-19T16:20:06.946Z,11.96
2022-10-19T16:21:06.915Z,11.88
2022-10-19T16:22:06.911Z,11.85
2022-10-19T16:23:06.969Z,11.80
2022-10-19T16:24:06.879Z,11.76
2022-10-19T16:25:07.026Z,11.72
2022-10-19T16:26:06.866Z,11.69
2022-10-19T16:27:06.923Z,11.62
2022-10-19T16:28:06.829Z,11.60
2022-10-19T16:29:06.830Z,11.55
2022-10-19T16:30:06.800Z,11.49
2022-10-19T16:31:06.801Z,11.44
2022-10-19T16:32:06.793Z,11.40
2022-10-19T16:33:07.141Z,11.35
2022-10-19T16:34:06.892Z,11.32
2022-10-19T16:35:06.945Z,11.29
2022-10-19T16:36:06.893Z,11.27
2022-10-19T16:37:07.609Z,11.22
2022-10-19T16:38:06.857Z,11.18
2022-10-19T16:39:06.988Z,11.15
2022-10-19T16:40:06.707Z,11.11
2022-10-19T16:41:06.702Z,11.07
2022-10-19T16:42:06.669Z,11.03
2022-10-19T16:43:06.669Z,11.02
2022-10-19T16:44:06.860Z,10.96
2022-10-19T16:45:06.647Z,10.92
2022-10-19T16:46:07.204Z,10.88
2022-10-19T16:47:06.625Z,10.84
2022-10-19T16:48:06.621Z,10.82
2022-10-19T16:49:06.672Z,10.79
2022-10-19T16:50:06.880Z,10.76
2022-10-19T16:51:06.584Z,10.70
2022-10-19T16:52:06.583Z,10.67
2022-10-19T16:53:06.937Z,10.66
2022-10-19T16:54:06.537Z,10.61
2022-10-19T16:55:06.529Z,10.56
2022-10-19T16:56:06.585Z,10.56
2022-10-19T16:57:09.790Z,10.53
2022-10-19T16:58:06.641Z,10.48
2022-10-19T16:59:06.502Z,10.44
2022-10-19T17:00:06.498Z,10.42
2022-10-19T17:01:06.497Z,10.40
2022-10-19T17:02:06.472Z,10.38
2022-10-19T17:03:06.522Z,10.36
2022-10-19T17:04:06.574Z,10.36
2022-10-19T17:05:06.477Z,10.36
2022-10-19T17:06:06.708Z,10.36
2022-10-19T17:07:06.422Z,10.34
2022-10-19T17:08:06.457Z,10.33
2022-10-19T17:10:47.996Z,10.26
2022-10-19T17:11:50.153Z,10.20
2022-10-19T17:24:24.944Z,9.72
2022-10-19T17:46:52.903Z,8.96
2022-10-19T17:47:50.197Z,8.95
2022-10-19T17:48:50.464Z,8.89
2022-10-19T17:49:52.076Z,8.86
2022-10-19T18:06:20.610Z,8.47
2022-10-19T18:07:17.175Z,8.44
2022-10-19T18:08:16.761Z,8.44
2022-10-19T18:09:16.853Z,8.43
2022-10-19T18:10:17.022Z,8.40
2022-10-19T18:16:09.663Z,8.33
2022-10-19T18:17:10.425Z,8.34
2022-10-19T18:18:09.243Z,8.33
2022-10-19T18:19:08.902Z,8.29
2022-10-19T18:20:10.270Z,8.28
2022-10-19T18:21:09.574Z,8.26
2022-10-19T18:22:33.434Z,8.22
2022-10-19T18:23:10.702Z,8.20
2022-10-19T18:24:20.459Z,8.18
2022-10-19T18:25:18.804Z,8.16
2022-10-19T18:26:10.336Z,8.12
2022-10-19T18:27:08.970Z,8.12
2022-10-19T18:28:08.908Z,8.08
2022-10-19T18:29:08.881Z,8.08
2022-10-19T18:30:08.820Z,8.05
2022-10-19T18:31:08.861Z,8.05
2022-10-19T18:32:08.959Z,8.04
2022-10-19T18:33:08.744Z,8.07
2022-10-19T18:34:08.792Z,8.05
2022-10-19T18:38:52.802Z,8.11
2022-10-19T18:40:16.010Z,8.10
2022-10-19T18:40:44.768Z,8.12
2022-10-19T18:41:43.776Z,8.15
2022-10-19T18:42:43.928Z,8.12
2022-10-19T18:43:43.974Z,8.12
2022-10-19T18:44:43.809Z,8.15